UAL49 KCOS-BIKF
Flight info
| Callsign | UAL49 |
|---|---|
| Flight time | 0h 26m |
| Altitude | 37000 |
| Route | FQF DCT PIR DCT GFK DCT YRL DCT YTL DCT KIREM DCT TAGIS DCT NALDI/M085F390 DCT SOSIT DCT KFV DCT NASBU NASBU2H |
| Aircraft | B78X/H-SDE1E2E3FGHIJ2J3J4J5M1RWXY/LB1D1 |
Departure
| Time | 2026-04-21 03:43 |
|---|---|
| Airport | City of Colorado Springs Municipal Airport (KCOS) |
Arrival
| Time | 2026-04-21 04:09 |
|---|---|
| Airport | Keflavik International Airport (BIKF) |
| Time | Latitude | Longitude | Altitude | Speed | Heading |
|---|---|---|---|---|---|
| 2026-04-21 03:29 | 38.81497 | -104.70129 | 6198 ft | 0 kts | 225° |
| 2026-04-21 03:36 | 38.81488 | -104.70142 | 6199 ft | 8 kts | 230° |
| 2026-04-21 03:36 | 38.81483 | -104.70151 | 6198 ft | 0 kts | 232° |
| 2026-04-21 03:37 | 38.81470 | -104.70161 | 6198 ft | 4 kts | 207° |
| 2026-04-21 03:37 | 38.81439 | -104.70151 | 6198 ft | 8 kts | 153° |
| 2026-04-21 03:38 | 38.81366 | -104.70074 | 6198 ft | 19 kts | 135° |
| 2026-04-21 03:38 | 38.81245 | -104.69916 | 6198 ft | 30 kts | 134° |
| 2026-04-21 03:38 | 38.81085 | -104.69715 | 6198 ft | 27 kts | 136° |
| 2026-04-21 03:38 | 38.80928 | -104.69508 | 6196 ft | 38 kts | 134° |
| 2026-04-21 03:39 | 38.80757 | -104.69287 | 6198 ft | 46 kts | 135° |
| 2026-04-21 03:39 | 38.80532 | -104.69004 | 6199 ft | 40 kts | 134° |
| 2026-04-21 03:39 | 38.80315 | -104.68791 | 6197 ft | 43 kts | 168° |
| 2026-04-21 03:39 | 38.79981 | -104.68787 | 6198 ft | 53 kts | 180° |
| 2026-04-21 03:40 | 38.79580 | -104.68786 | 6198 ft | 62 kts | 180° |
| 2026-04-21 03:40 | 38.79118 | -104.68786 | 6198 ft | 70 kts | 179° |
| 2026-04-21 03:40 | 38.78604 | -104.68784 | 6199 ft | 77 kts | 179° |
| 2026-04-21 03:40 | 38.78141 | -104.68789 | 6197 ft | 40 kts | 181° |
| 2026-04-21 03:41 | 38.77987 | -104.68792 | 6199 ft | 18 kts | 181° |
| 2026-04-21 03:41 | 38.77918 | -104.68724 | 6199 ft | 12 kts | 106° |
| 2026-04-21 03:41 | 38.77914 | -104.68609 | 6197 ft | 11 kts | 78° |
| 2026-04-21 03:41 | 38.77955 | -104.68576 | 6197 ft | 10 kts | 4° |
| 2026-04-21 03:42 | 38.78137 | -104.68580 | 6198 ft | 54 kts | 360° |
| 2026-04-21 03:42 | 38.78751 | -104.68581 | 6200 ft | 121 kts | 0° |
| 2026-04-21 03:42 | 38.79798 | -104.68587 | 6232 ft | 175 kts | 359° |
| 2026-04-21 03:42 | 38.81114 | -104.68532 | 6714 ft | 202 kts | 12° |
| 2026-04-21 03:43 | 38.82598 | -104.68004 | 7108 ft | 238 kts | 17° |
| 2026-04-21 03:43 | 38.84201 | -104.67399 | 7900 ft | 247 kts | 17° |
| 2026-04-21 03:43 | 38.85931 | -104.66742 | 8344 ft | 269 kts | 17° |
| 2026-04-21 03:43 | 38.87793 | -104.66203 | 9028 ft | 284 kts | 4° |
| 2026-04-21 03:44 | 38.89775 | -104.66105 | 10140 ft | 287 kts | 2° |
| 2026-04-21 03:44 | 38.91827 | -104.66047 | 10882 ft | 305 kts | 2° |
| 2026-04-21 03:44 | 38.93990 | -104.65947 | 11506 ft | 325 kts | 3° |
| 2026-04-21 03:44 | 38.96324 | -104.65813 | 12122 ft | 345 kts | 3° |
| 2026-04-21 03:45 | 38.98781 | -104.65684 | 12880 ft | 359 kts | 2° |
| 2026-04-21 03:45 | 39.01301 | -104.65562 | 13848 ft | 366 kts | 2° |
| 2026-04-21 03:45 | 39.03863 | -104.65434 | 14782 ft | 371 kts | 2° |
| 2026-04-21 03:45 | 39.06453 | -104.65301 | 15731 ft | 374 kts | 1° |
| 2026-04-21 03:46 | 39.09068 | -104.65168 | 16670 ft | 377 kts | 1° |
| 2026-04-21 03:46 | 39.11700 | -104.65035 | 17618 ft | 380 kts | 1° |
| 2026-04-21 03:46 | 39.14358 | -104.64900 | 18528 ft | 383 kts | 1° |
| 2026-04-21 03:46 | 39.17039 | -104.64763 | 19318 ft | 386 kts | 0° |
| 2026-04-21 03:47 | 39.19734 | -104.64626 | 20110 ft | 389 kts | 0° |
| 2026-04-21 03:47 | 39.22451 | -104.64488 | 20881 ft | 392 kts | 0° |
| 2026-04-21 03:47 | 39.25192 | -104.64348 | 21647 ft | 395 kts | 0° |
| 2026-04-21 03:47 | 39.27949 | -104.64207 | 22376 ft | 399 kts | 360° |
| 2026-04-21 03:48 | 39.30706 | -104.64067 | 23120 ft | 402 kts | 360° |
| 2026-04-21 03:48 | 39.33513 | -104.63923 | 23810 ft | 406 kts | 360° |
| 2026-04-21 03:48 | 39.36346 | -104.63778 | 24416 ft | 409 kts | 360° |
| 2026-04-21 03:48 | 39.39205 | -104.63632 | 25006 ft | 412 kts | 0° |
| 2026-04-21 03:49 | 39.42086 | -104.63484 | 25591 ft | 415 kts | 0° |
| 2026-04-21 03:49 | 39.44981 | -104.63335 | 26175 ft | 418 kts | 0° |
| 2026-04-21 03:49 | 39.46915 | -104.63236 | 26549 ft | 420 kts | 0° |
| 2026-04-21 03:49 | 39.49850 | -104.63085 | 27121 ft | 423 kts | 0° |
| 2026-04-21 03:50 | 39.52797 | -104.62934 | 27683 ft | 426 kts | 1° |
| 2026-04-21 03:50 | 39.56750 | -104.62730 | 28381 ft | 430 kts | 1° |
| 2026-04-21 03:50 | 39.59747 | -104.62576 | 28934 ft | 433 kts | 1° |
| 2026-04-21 03:50 | 39.62763 | -104.62421 | 29479 ft | 435 kts | 1° |
| 2026-04-21 03:51 | 39.64814 | -104.62311 | 29836 ft | 437 kts | 2° |
| 2026-04-21 03:51 | 39.67795 | -104.61710 | 30324 ft | 441 kts | 14° |
| 2026-04-21 03:51 | 39.70696 | -104.60353 | 30799 ft | 445 kts | 25° |
| 2026-04-21 03:51 | 39.73375 | -104.58303 | 31238 ft | 449 kts | 31° |
| 2026-04-21 03:52 | 39.75992 | -104.56061 | 31617 ft | 452 kts | 31° |
| 2026-04-21 03:52 | 39.78620 | -104.53785 | 32027 ft | 455 kts | 31° |
| 2026-04-21 03:52 | 39.81253 | -104.51481 | 32415 ft | 457 kts | 32° |
| 2026-04-21 03:52 | 39.83900 | -104.49175 | 32811 ft | 459 kts | 31° |
| 2026-04-21 03:53 | 39.86562 | -104.46865 | 33192 ft | 461 kts | 31° |
| 2026-04-21 03:53 | 39.89212 | -104.44559 | 33540 ft | 463 kts | 31° |
| 2026-04-21 03:53 | 39.91894 | -104.42218 | 33885 ft | 465 kts | 31° |
| 2026-04-21 03:53 | 39.94593 | -104.39859 | 34192 ft | 467 kts | 31° |
| 2026-04-21 03:54 | 39.97303 | -104.37492 | 34471 ft | 469 kts | 31° |
| 2026-04-21 03:54 | 40.00021 | -104.35116 | 34756 ft | 471 kts | 31° |
| 2026-04-21 03:54 | 40.02747 | -104.32729 | 35055 ft | 472 kts | 31° |
| 2026-04-21 03:54 | 40.05470 | -104.30340 | 35505 ft | 469 kts | 31° |
| 2026-04-21 03:55 | 40.08181 | -104.27962 | 35934 ft | 467 kts | 31° |
| 2026-04-21 03:55 | 40.10876 | -104.25597 | 36337 ft | 466 kts | 31° |
| 2026-04-21 03:55 | 40.13496 | -104.23294 | 36728 ft | 465 kts | 31° |
| 2026-04-21 03:55 | 40.16187 | -104.20927 | 36932 ft | 467 kts | 31° |
| 2026-04-21 03:56 | 40.21535 | -104.16221 | 36946 ft | 459 kts | 31° |
| 2026-04-21 03:56 | 40.26867 | -104.11507 | 36974 ft | 461 kts | 31° |
| 2026-04-21 03:57 | 40.32185 | -104.06806 | 36991 ft | 462 kts | 31° |
| 2026-04-21 03:57 | 40.37508 | -104.02086 | 37007 ft | 462 kts | 31° |
| 2026-04-21 03:58 | 40.42835 | -103.97358 | 37009 ft | 462 kts | 31° |
| 2026-04-21 03:58 | 40.48129 | -103.92647 | 36998 ft | 462 kts | 31° |
| 2026-04-21 03:59 | 40.53460 | -103.87895 | 36989 ft | 463 kts | 31° |
| 2026-04-21 04:00 | 63.97879 | -21.70756 | 5172 ft | 312 kts | 272° |
| 2026-04-21 04:00 | 63.97879 | -21.70757 | 5171 ft | 312 kts | 272° |
| 2026-04-21 04:00 | 63.97921 | -21.73142 | 5292 ft | 307 kts | 271° |
| 2026-04-21 04:01 | 63.97922 | -21.77774 | 5389 ft | 279 kts | 268° |
| 2026-04-21 04:01 | 63.97880 | -21.82007 | 5420 ft | 257 kts | 265° |
| 2026-04-21 04:01 | 63.97722 | -21.85902 | 5430 ft | 240 kts | 263° |
| 2026-04-21 04:01 | 63.97533 | -21.89618 | 5429 ft | 228 kts | 269° |
| 2026-04-21 04:02 | 63.97934 | -21.92960 | 5264 ft | 213 kts | 290° |
| 2026-04-21 04:02 | 63.98378 | -21.96052 | 5123 ft | 199 kts | 283° |
| 2026-04-21 04:02 | 63.98532 | -21.99081 | 4958 ft | 187 kts | 271° |
| 2026-04-21 04:02 | 63.98544 | -22.01968 | 4803 ft | 178 kts | 269° |
| 2026-04-21 04:03 | 63.98544 | -22.04703 | 4647 ft | 168 kts | 269° |
| 2026-04-21 04:03 | 63.98542 | -22.07349 | 4494 ft | 166 kts | 269° |
| 2026-04-21 04:03 | 63.98540 | -22.09947 | 4349 ft | 164 kts | 269° |
| 2026-04-21 04:03 | 63.98538 | -22.12494 | 4191 ft | 158 kts | 269° |
| 2026-04-21 04:04 | 63.98536 | -22.14997 | 4124 ft | 157 kts | 269° |
| 2026-04-21 04:04 | 63.98534 | -22.17535 | 3929 ft | 156 kts | 269° |
| 2026-04-21 04:04 | 63.98532 | -22.20044 | 3710 ft | 155 kts | 269° |
| 2026-04-21 04:04 | 63.98532 | -22.22452 | 3506 ft | 155 kts | 269° |
| 2026-04-21 04:05 | 63.98530 | -22.24843 | 3296 ft | 153 kts | 268° |
| 2026-04-21 04:05 | 63.98529 | -22.27177 | 3090 ft | 145 kts | 268° |
| 2026-04-21 04:05 | 63.98527 | -22.29452 | 2893 ft | 143 kts | 268° |
| 2026-04-21 04:05 | 63.98525 | -22.31746 | 2697 ft | 144 kts | 268° |
| 2026-04-21 04:06 | 63.98523 | -22.34029 | 2502 ft | 144 kts | 268° |
| 2026-04-21 04:06 | 63.98520 | -22.36301 | 2297 ft | 144 kts | 268° |
| 2026-04-21 04:06 | 63.98518 | -22.38560 | 2108 ft | 143 kts | 269° |
| 2026-04-21 04:06 | 63.98517 | -22.40802 | 1904 ft | 142 kts | 269° |
| 2026-04-21 04:07 | 63.98514 | -22.43059 | 1710 ft | 140 kts | 269° |
| 2026-04-21 04:07 | 63.98517 | -22.45303 | 1515 ft | 140 kts | 269° |
| 2026-04-21 04:07 | 63.98514 | -22.47547 | 1323 ft | 141 kts | 269° |
| 2026-04-21 04:07 | 63.98512 | -22.49767 | 1143 ft | 141 kts | 270° |
| 2026-04-21 04:08 | 63.98514 | -22.52001 | 909 ft | 142 kts | 265° |
| 2026-04-21 04:08 | 63.98502 | -22.54234 | 802 ft | 141 kts | 268° |
| 2026-04-21 04:08 | 63.98496 | -22.56483 | 620 ft | 142 kts | 270° |
| 2026-04-21 04:08 | 63.98502 | -22.58633 | 298 ft | 130 kts | 269° |
| 2026-04-21 04:09 | 63.98500 | -22.60494 | 172 ft | 97 kts | 270° |
| 2026-04-21 04:09 | 63.98502 | -22.61711 | 163 ft | 54 kts | 270° |
| 2026-04-21 04:09 | 63.98502 | -22.62400 | 157 ft | 36 kts | 269° |
| 2026-04-21 04:09 | 63.98503 | -22.62831 | 152 ft | 20 kts | 272° |
| 2026-04-21 04:10 | 63.98505 | -22.63430 | 147 ft | 46 kts | 270° |
| 2026-04-21 04:10 | 63.98626 | -22.64082 | 139 ft | 41 kts | 310° |
| 2026-04-21 04:10 | 63.98765 | -22.64150 | 139 ft | 20 kts | 0° |
| 2026-04-21 04:10 | 63.98853 | -22.64022 | 141 ft | 15 kts | 76° |
| 2026-04-21 04:11 | 63.98853 | -22.63343 | 148 ft | 54 kts | 90° |
| 2026-04-21 04:11 | 63.98901 | -22.62874 | 153 ft | 23 kts | 33° |
| 2026-04-21 04:11 | 63.99126 | -22.62703 | 159 ft | 28 kts | 33° |
| 2026-04-21 04:11 | 63.99169 | -22.62400 | 163 ft | 20 kts | 95° |
| 2026-04-21 04:12 | 63.99170 | -22.62063 | 167 ft | 23 kts | 85° |
| 2026-04-21 04:12 | 63.99219 | -22.61976 | 169 ft | 7 kts | 355° |
| 2026-04-21 04:12 | 63.99250 | -22.62057 | 168 ft | 1 kts | 285° |
| 2026-04-21 04:12 | 63.99252 | -22.62115 | 168 ft | 8 kts | 287° |
| 2026-04-21 04:13 | 63.99272 | -22.62173 | 167 ft | 0 kts | 308° |
| 2026-04-21 04:13 | 63.99276 | -22.62192 | 167 ft | 2 kts | 302° |
| 2026-04-21 04:13 | 63.99279 | -22.62201 | 167 ft | 1 kts | 301° |
| 2026-04-21 04:13 | 63.99279 | -22.62203 | 167 ft | 0 kts | 301° |